Time;durP1;ratioP1;P1;durP2;ratioP2;P2;SDS_P1;SDS_P2;PMS_P1;PMS_P2;Temp;Humidity;BMP_temperature;BMP_pressure;BME280_temperature;BME280_humidity;BME280_pressure;Samples;Min_cycle;Max_cycle;Signal;HPM_P1;HPM_P2
2022/03/14 00:01:32;;;;;;;17.50;8.07;;;7.10;39.30;;;;;;5077296;28;20514;-61
2022/03/14 00:04:01;;;;;;;14.83;8.53;;;7.10;38.90;;;;;;5076746;28;20446;-58
2022/03/14 00:06:28;;;;;;;23.13;8.77;;;7.10;38.60;;;;;;5075851;28;20791;-58
2022/03/14 00:08:57;;;;;;;16.57;9.43;;;7.10;38.90;;;;;;5075942;28;20473;-57
2022/03/14 00:11:25;;;;;;;18.07;8.97;;;7.10;39.00;;;;;;5075579;28;20984;-58
2022/03/14 00:13:54;;;;;;;22.23;8.63;;;7.00;38.90;;;;;;5075462;28;20465;-55
2022/03/14 00:16:23;;;;;;;16.27;8.30;;;6.90;39.00;;;;;;5074904;28;20470;-58
2022/03/14 00:18:51;;;;;;;13.50;7.60;;;6.90;39.10;;;;;;5075194;28;20453;-52
2022/03/14 00:21:23;;;;;;;18.63;10.70;;;6.90;39.00;;;;;;5074833;28;20474;-58
2022/03/14 00:23:52;;;;;;;11.40;6.93;;;6.90;39.10;;;;;;5075253;28;20544;-56
2022/03/14 00:26:19;;;;;;;20.43;8.40;;;6.80;39.10;;;;;;5075206;28;20446;-56
2022/03/14 00:28:46;;;;;;;18.07;8.90;;;6.80;39.10;;;;;;5075161;28;20474;-58
2022/03/14 00:31:13;;;;;;;16.97;8.83;;;6.70;39.10;;;;;;5075136;28;20527;-58
2022/03/14 00:33:40;;;;;;;20.63;8.80;;;6.70;39.30;;;;;;5074940;28;20490;-58
2022/03/14 00:36:10;;;;;;;16.77;8.70;;;6.70;39.40;;;;;;5075212;28;20923;-54
2022/03/14 00:38:40;;;;;;;17.97;9.50;;;6.60;39.50;;;;;;5075103;28;20446;-57
2022/03/14 00:41:07;;;;;;;17.80;8.93;;;6.60;39.70;;;;;;5075111;28;20497;-58
2022/03/14 00:43:35;;;;;;;16.40;9.27;;;6.60;39.70;;;;;;5074776;28;20891;-57
2022/03/14 00:46:02;;;;;;;15.17;9.30;;;6.50;39.60;;;;;;5074595;28;20467;-58
2022/03/14 00:48:32;;;;;;;15.80;8.50;;;6.40;39.80;;;;;;5074885;28;20446;-57
2022/03/14 00:50:59;;;;;;;22.33;10.50;;;6.40;40.00;;;;;;5074611;28;20505;-58
2022/03/14 00:53:25;;;;;;;17.80;10.20;;;6.40;40.10;;;;;;5074911;28;20474;-57
2022/03/14 00:55:53;;;;;;;17.80;8.73;;;6.40;40.00;;;;;;5076498;28;20477;-59
2022/03/14 00:58:20;;;;;;;16.23;8.73;;;6.30;40.10;;;;;;5077502;28;20461;-60
2022/03/14 01:00:48;;;;;;;20.03;9.63;;;6.30;40.10;;;;;;5075261;28;20452;-58
2022/03/14 01:03:15;;;;;;;17.00;8.77;;;6.30;40.20;;;;;;5075210;28;20446;-58
2022/03/14 01:05:42;;;;;;;18.13;9.80;;;6.30;40.20;;;;;;5074847;28;20536;-58
2022/03/14 01:08:09;;;;;;;14.93;7.67;;;6.30;40.20;;;;;;5074415;28;20447;-58
2022/03/14 01:10:36;;;;;;;16.77;8.77;;;6.20;40.20;;;;;;5074852;28;20537;-58
2022/03/14 01:13:04;;;;;;;22.83;9.63;;;6.20;40.40;;;;;;5074292;28;20772;-59
2022/03/14 01:15:32;;;;;;;20.53;8.50;;;6.20;40.40;;;;;;5074459;28;20928;-58
2022/03/14 01:17:58;;;;;;;16.10;8.93;;;6.20;40.50;;;;;;5074869;28;20561;-58
2022/03/14 01:20:25;;;;;;;18.63;9.67;;;6.10;40.50;;;;;;5074642;28;20446;-57
2022/03/14 01:22:54;;;;;;;23.27;9.27;;;6.00;40.60;;;;;;5074420;28;20589;-59
2022/03/14 01:25:21;;;;;;;19.13;9.20;;;6.00;40.60;;;;;;5074424;28;20446;-58
2022/03/14 01:27:48;;;;;;;21.13;9.20;;;6.00;40.60;;;;;;5074625;28;20452;-57
2022/03/14 01:30:16;;;;;;;21.90;9.57;;;6.00;40.80;;;;;;5074382;28;20812;-59
2022/03/14 01:32:42;;;;;;;18.77;10.40;;;6.00;40.80;;;;;;5074220;28;20757;-55
2022/03/14 01:35:09;;;;;;;18.23;9.90;;;6.00;40.90;;;;;;5074378;28;20495;-56
2022/03/14 01:37:36;;;;;;;18.90;9.27;;;6.00;40.90;;;;;;5074268;28;20476;-59
2022/03/14 01:40:03;;;;;;;17.03;9.53;;;6.00;40.90;;;;;;5074566;28;20458;-59
2022/03/14 01:42:30;;;;;;;17.40;8.70;;;6.00;40.90;;;;;;5074755;28;20579;-55
2022/03/14 01:45:00;;;;;;;20.37;9.47;;;6.00;41.00;;;;;;5074800;28;20500;-58
2022/03/14 01:47:28;;;;;;;18.70;9.47;;;5.90;41.10;;;;;;5074625;28;20450;-57
2022/03/14 01:49:56;;;;;;;20.10;8.80;;;5.90;41.10;;;;;;5074690;28;20511;-59
2022/03/14 01:52:23;;;;;;;16.77;8.60;;;5.90;41.30;;;;;;5076619;28;20537;-58
2022/03/14 01:54:50;;;;;;;16.40;9.53;;;5.90;41.20;;;;;;5075218;28;20951;-59
2022/03/14 01:57:17;;;;;;;17.57;8.30;;;5.90;41.40;;;;;;5074493;28;20442;-59
2022/03/14 01:59:44;;;;;;;18.23;9.73;;;5.90;41.60;;;;;;5074144;28;20450;-56
2022/03/14 02:02:11;;;;;;;16.63;9.00;;;5.90;41.60;;;;;;5074105;28;20477;-59
2022/03/14 02:04:39;;;;;;;20.23;8.43;;;5.80;41.70;;;;;;5074331;28;20438;-53
2022/03/14 02:07:06;;;;;;;17.53;8.90;;;5.80;41.80;;;;;;5073975;28;20478;-59
2022/03/14 02:09:33;;;;;;;15.83;8.80;;;5.80;41.90;;;;;;5073894;28;20454;-59
2022/03/14 02:12:07;;;;;;;18.17;8.80;;;5.70;41.90;;;;;;5073997;28;20505;-59
2022/03/14 02:14:39;;;;;;;15.73;8.60;;;5.70;42.00;;;;;;5073980;28;20768;-59
2022/03/14 02:17:06;;;;;;;15.87;9.50;;;5.70;42.40;;;;;;5074439;28;20579;-59
2022/03/14 02:19:34;;;;;;;17.50;8.70;;;5.70;42.10;;;;;;5074229;28;20470;-59
2022/03/14 02:22:02;;;;;;;22.80;9.37;;;5.60;42.30;;;;;;5074245;28;20485;-59
2022/03/14 02:24:29;;;;;;;16.97;8.70;;;5.60;42.30;;;;;;5075115;28;20466;-58
2022/03/14 02:26:57;;;;;;;23.03;9.10;;;5.60;42.40;;;;;;5077862;28;20426;-58
2022/03/14 02:29:24;;;;;;;14.17;7.83;;;5.60;42.50;;;;;;5077822;28;20462;-56
2022/03/14 02:31:51;;;;;;;22.93;8.93;;;5.60;42.60;;;;;;5078029;28;20444;-58
2022/03/14 02:34:18;;;;;;;17.17;8.23;;;5.50;42.60;;;;;;5078071;28;20811;-58
2022/03/14 02:36:45;;;;;;;18.80;9.70;;;5.40;42.70;;;;;;5077512;28;20496;-57
2022/03/14 02:39:13;;;;;;;13.63;8.90;;;5.40;42.80;;;;;;5077481;28;20446;-59
2022/03/14 02:41:40;;;;;;;15.63;8.90;;;5.40;43.00;;;;;;5077480;28;20474;-59
2022/03/14 02:44:08;;;;;;;19.10;9.57;;;5.40;43.00;;;;;;5077379;28;20470;-59
2022/03/14 02:46:36;;;;;;;16.73;9.20;;;5.40;43.10;;;;;;5079088;28;20457;-64
2022/03/14 02:49:04;;;;;;;22.20;10.60;;;5.40;43.30;;;;;;5079965;28;20478;-55
2022/03/14 02:51:30;;;;;;;16.97;9.57;;;5.40;43.10;;;;;;5078257;28;20446;-58
2022/03/14 02:53:57;;;;;;;19.83;9.57;;;5.40;43.30;;;;;;5077765;28;20466;-59
2022/03/14 02:56:25;;;;;;;17.40;9.40;;;5.30;43.30;;;;;;5078495;28;20503;-59
2022/03/14 02:58:53;;;;;;;15.70;7.90;;;5.30;43.30;;;;;;5078046;28;20457;-60
2022/03/14 03:01:22;;;;;;;12.73;7.70;;;5.30;43.80;;;;;;5077526;28;20478;-62
2022/03/14 03:03:49;;;;;;;15.20;8.73;;;5.30;43.70;;;;;;5078179;28;20446;-60
2022/03/14 03:06:22;;;;;;;15.20;8.70;;;5.30;43.40;;;;;;5078086;28;20937;-57
2022/03/14 03:08:52;;;;;;;13.93;8.93;;;5.30;43.50;;;;;;5077639;28;20439;-59
2022/03/14 03:11:19;;;;;;;20.70;8.23;;;5.40;43.70;;;;;;5077634;28;20442;-60
2022/03/14 03:13:48;;;;;;;19.43;8.80;;;5.30;43.70;;;;;;5077793;28;20527;-59
2022/03/14 03:16:17;;;;;;;14.93;8.00;;;5.30;43.70;;;;;;5078163;28;20499;-58
2022/03/14 03:18:45;;;;;;;25.53;9.13;;;5.30;43.70;;;;;;5077774;28;20438;-59
2022/03/14 03:21:12;;;;;;;15.50;8.50;;;5.30;43.80;;;;;;5077065;28;20422;-59
2022/03/14 03:23:39;;;;;;;17.30;9.37;;;5.30;44.00;;;;;;5076847;28;20474;-57
2022/03/14 03:26:07;;;;;;;17.10;10.30;;;5.30;44.10;;;;;;5076516;28;20923;-59
2022/03/14 03:28:36;;;;;;;16.27;8.67;;;5.30;44.10;;;;;;5076893;28;20791;-59
2022/03/14 03:31:09;;;;;;;16.93;8.33;;;5.30;44.10;;;;;;5076965;28;20442;-59
2022/03/14 03:33:38;;;;;;;17.60;10.77;;;5.20;44.20;;;;;;5076600;28;20427;-59
2022/03/14 03:36:05;;;;;;;12.77;8.37;;;5.30;44.40;;;;;;5075561;28;20446;-56
2022/03/14 03:38:32;;;;;;;14.87;7.20;;;5.30;44.10;;;;;;5076526;28;20825;-59
2022/03/14 03:40:59;;;;;;;21.73;8.83;;;5.30;44.00;;;;;;5077251;28;20516;-57
2022/03/14 03:43:26;;;;;;;13.47;7.30;;;5.30;44.00;;;;;;5078760;28;20495;-57
2022/03/14 03:45:52;;;;;;;17.60;9.10;;;5.30;43.90;;;;;;5077363;28;20435;-59
2022/03/14 03:48:21;;;;;;;18.07;9.23;;;5.30;43.80;;;;;;5076764;28;20948;-58
2022/03/14 03:50:48;;;;;;;20.57;10.50;;;5.30;43.70;;;;;;5076180;28;20569;-59
2022/03/14 03:53:14;;;;;;;19.50;8.23;;;5.30;43.60;;;;;;5076253;28;20503;-59
2022/03/14 03:55:41;;;;;;;14.13;7.97;;;5.30;43.70;;;;;;5076257;28;20496;-59
2022/03/14 03:58:08;;;;;;;20.33;8.60;;;5.40;43.80;;;;;;5076063;28;20512;-59
2022/03/14 04:00:35;;;;;;;17.87;9.40;;;5.40;43.70;;;;;;5075975;28;20454;-58
2022/03/14 04:03:02;;;;;;;19.47;8.77;;;5.40;43.80;;;;;;5075608;28;20494;-56
2022/03/14 04:05:30;;;;;;;27.07;9.23;;;5.40;43.60;;;;;;5075820;28;20469;-59
2022/03/14 04:07:59;;;;;;;12.27;7.50;;;5.40;43.70;;;;;;5076261;28;20466;-57
2022/03/14 04:10:29;;;;;;;18.63;9.23;;;5.40;43.80;;;;;;5075964;28;20438;-58
2022/03/14 04:12:58;;;;;;;13.50;8.70;;;5.40;43.70;;;;;;5075630;28;20451;-59
2022/03/14 04:15:27;;;;;;;17.50;9.60;;;5.50;43.60;;;;;;5075644;28;20523;-59
2022/03/14 04:18:00;;;;;;;20.50;9.67;;;5.40;43.50;;;;;;5075724;28;20446;-59
2022/03/14 04:20:27;;;;;;;12.00;7.37;;;5.40;43.70;;;;;;5075759;28;20484;-59
2022/03/14 04:22:57;;;;;;;19.10;10.00;;;5.50;43.70;;;;;;5075729;28;21063;-59
2022/03/14 04:25:24;;;;;;;15.17;9.50;;;5.30;44.00;;;;;;5075760;28;20474;-57
2022/03/14 04:27:52;;;;;;;13.50;8.43;;;5.30;43.60;;;;;;5075325;28;20523;-57
2022/03/14 04:30:19;;;;;;;14.60;8.37;;;5.60;44.50;;;;;;5075431;28;20447;-57
2022/03/14 04:32:45;;;;;;;15.03;8.47;;;5.40;44.00;;;;;;5075316;28;20474;-58
2022/03/14 04:35:12;;;;;;;26.93;10.50;;;5.40;43.90;;;;;;5075653;28;20458;-59
2022/03/14 04:37:40;;;;;;;15.63;8.60;;;5.30;43.90;;;;;;5077421;28;20473;-61
2022/03/14 04:40:11;;;;;;;16.73;8.67;;;5.30;44.10;;;;;;5077239;28;20758;-55
2022/03/14 04:42:38;;;;;;;19.13;8.50;;;5.30;44.10;;;;;;5075723;28;20551;-53
2022/03/14 04:45:05;;;;;;;17.33;9.57;;;5.30;44.20;;;;;;5075037;28;20470;-57
2022/03/14 04:47:32;;;;;;;22.20;10.07;;;5.30;44.20;;;;;;5075217;28;20446;-56
2022/03/14 04:49:59;;;;;;;18.03;8.70;;;5.30;44.40;;;;;;5076070;28;20554;-58
2022/03/14 04:52:28;;;;;;;23.33;8.77;;;5.20;44.40;;;;;;5075715;28;20469;-59
2022/03/14 04:54:55;;;;;;;17.30;8.23;;;5.20;44.30;;;;;;5075628;28;20442;-58
2022/03/14 04:57:23;;;;;;;18.83;9.17;;;5.20;44.50;;;;;;5075485;28;20508;-61
2022/03/14 04:59:49;;;;;;;13.70;8.10;;;5.20;44.60;;;;;;5075373;28;20523;-57
2022/03/14 05:02:21;;;;;;;24.53;8.77;;;5.10;44.70;;;;;;5074941;28;20524;-58
2022/03/14 05:04:47;;;;;;;22.30;9.93;;;5.10;44.60;;;;;;5075362;28;20484;-57
2022/03/14 05:07:14;;;;;;;16.87;9.50;;;5.20;44.70;;;;;;5075024;28;20466;-58
2022/03/14 05:09:40;;;;;;;23.50;10.30;;;5.10;44.70;;;;;;5075097;28;20466;-56
2022/03/14 05:12:08;;;;;;;18.97;9.57;;;5.10;44.80;;;;;;5075461;28;20434;-59
2022/03/14 05:14:43;;;;;;;14.63;8.43;;;5.10;44.70;;;;;;5074909;28;20535;-58
2022/03/14 05:17:10;;;;;;;21.93;11.27;;;5.10;44.70;;;;;;5075177;28;20906;-59
2022/03/14 05:19:37;;;;;;;18.83;9.77;;;5.10;44.90;;;;;;5075312;28;20442;-54
2022/03/14 05:22:04;;;;;;;20.23;9.03;;;5.00;44.90;;;;;;5074661;28;20967;-56
2022/03/14 05:24:30;;;;;;;19.50;8.93;;;5.00;45.10;;;;;;5075210;28;20828;-55
2022/03/14 05:26:58;;;;;;;16.53;8.87;;;4.90;45.20;;;;;;5072812;28;20454;-58
2022/03/14 05:29:25;;;;;;;20.73;10.00;;;4.90;45.30;;;;;;5074943;28;20435;-58
2022/03/14 05:31:53;;;;;;;19.07;10.00;;;4.80;45.70;;;;;;5075790;28;20462;-59
2022/03/14 05:34:20;;;;;;;19.50;10.70;;;4.80;45.60;;;;;;5077176;28;20523;-59
2022/03/14 05:36:47;;;;;;;21.97;9.80;;;4.80;45.80;;;;;;5076043;28;20474;-56
2022/03/14 05:39:14;;;;;;;14.40;7.70;;;4.80;45.90;;;;;;5075285;28;20504;-56
2022/03/14 05:41:41;;;;;;;19.33;9.47;;;4.70;45.90;;;;;;5075433;28;20472;-56
2022/03/14 05:44:08;;;;;;;23.30;9.60;;;4.70;46.00;;;;;;5075596;28;20529;-55
2022/03/14 05:46:35;;;;;;;20.93;9.30;;;4.70;46.00;;;;;;5075029;28;20527;-57
2022/03/14 05:49:03;;;;;;;16.57;10.23;;;4.70;46.00;;;;;;5074826;28;20454;-60
2022/03/14 05:51:30;;;;;;;21.13;9.47;;;4.70;46.00;;;;;;5075626;28;20462;-62
2022/03/14 05:53:57;;;;;;;16.87;9.50;;;4.70;45.90;;;;;;5075367;28;20419;-60
2022/03/14 05:56:23;;;;;;;18.63;10.37;;;4.70;45.90;;;;;;5074616;28;20431;-56
2022/03/14 05:58:51;;;;;;;16.73;8.40;;;4.80;45.60;;;;;;5075095;28;20457;-60
2022/03/14 06:01:17;;;;;;;19.40;9.20;;;4.80;45.30;;;;;;5078014;28;20953;-60
2022/03/14 06:03:44;;;;;;;25.80;8.90;;;4.80;45.10;;;;;;5078017;28;20486;-58
2022/03/14 06:06:13;;;;;;;23.10;8.43;;;4.90;44.90;;;;;;5078498;28;20450;-62
2022/03/14 06:08:39;;;;;;;16.90;9.37;;;4.90;44.90;;;;;;5078354;28;20474;-59
2022/03/14 06:11:08;;;;;;;19.40;10.47;;;4.90;44.80;;;;;;5078239;28;20446;-57
2022/03/14 06:13:39;;;;;;;19.07;10.17;;;5.00;44.90;;;;;;5082181;28;20443;-52
2022/03/14 06:16:06;;;;;;;16.20;8.87;;;5.00;44.80;;;;;;5077615;28;20446;-60
2022/03/14 06:18:32;;;;;;;25.57;11.73;;;5.00;44.60;;;;;;5078069;28;20446;-60
2022/03/14 06:20:59;;;;;;;18.83;9.57;;;5.00;44.80;;;;;;5077315;28;20480;-60
2022/03/14 06:23:31;;;;;;;21.00;9.93;;;5.00;45.10;;;;;;5076977;28;20480;-60
2022/03/14 06:25:57;;;;;;;19.60;10.10;;;5.00;45.40;;;;;;5076636;28;21088;-60
2022/03/14 06:28:24;;;;;;;16.40;9.57;;;5.00;45.60;;;;;;5076991;28;20450;-58
2022/03/14 06:30:51;;;;;;;21.30;9.87;;;5.00;46.10;;;;;;5077210;28;20450;-59
2022/03/14 06:33:20;;;;;;;23.53;11.10;;;5.00;46.00;;;;;;5076774;28;20462;-63
2022/03/14 06:35:48;;;;;;;17.70;9.47;;;5.00;45.90;;;;;;5077395;28;20454;-57
2022/03/14 06:38:14;;;;;;;20.67;10.77;;;5.00;45.50;;;;;;5077115;28;20547;-62
2022/03/14 06:40:42;;;;;;;16.30;11.07;;;5.10;45.60;;;;;;5076710;28;20450;-56
2022/03/14 06:43:10;;;;;;;23.03;9.30;;;5.10;45.10;;;;;;5076637;28;20570;-57
2022/03/14 06:45:38;;;;;;;20.70;10.00;;;5.20;44.80;;;;;;5076610;28;20435;-60
2022/03/14 06:48:06;;;;;;;16.80;10.43;;;5.30;44.50;;;;;;5077053;28;20498;-59
2022/03/14 06:50:36;;;;;;;20.03;10.00;;;5.30;44.20;;;;;;5077726;28;20474;-57
2022/03/14 06:53:03;;;;;;;18.87;9.30;;;5.40;44.10;;;;;;5076817;28;20511;-58
2022/03/14 06:55:30;;;;;;;20.97;11.50;;;5.50;43.90;;;;;;5076824;28;20752;-59
2022/03/14 06:57:58;;;;;;;21.77;10.77;;;5.50;43.60;;;;;;5076798;28;20435;-59
2022/03/14 07:00:26;;;;;;;21.13;9.57;;;5.50;43.60;;;;;;5076789;28;20938;-59
2022/03/14 07:02:53;;;;;;;15.10;9.00;;;5.50;44.10;;;;;;5076903;28;20489;-60
2022/03/14 07:05:23;;;;;;;18.23;9.33;;;6.20;55.20;;;;;;5076841;28;20439;-62
2022/03/14 07:07:50;;;;;;;22.77;8.93;;;7.30;55.70;;;;;;5076220;28;20470;-58
2022/03/14 07:10:17;;;;;;;20.43;11.90;;;7.70;45.40;;;;;;5075460;28;20521;-59
2022/03/14 07:12:46;;;;;;;22.40;11.00;;;7.50;42.00;;;;;;5075637;28;20521;-59
2022/03/14 07:15:15;;;;;;;29.70;12.77;;;7.20;41.40;;;;;;5075436;28;20470;-64
2022/03/14 07:17:45;;;;;;;20.40;10.13;;;6.90;41.40;;;;;;5076471;28;20541;-62
2022/03/14 07:20:13;;;;;;;24.20;11.00;;;6.70;42.50;;;;;;5075981;28;20474;-60
2022/03/14 07:22:58;;;;;;;22.03;10.90;;;6.60;42.30;;;;;;5077000;28;20492;-60
2022/03/14 07:25:26;;;;;;;18.10;9.50;;;6.50;42.20;;;;;;5075910;28;20473;-60
2022/03/14 07:27:54;;;;;;;16.97;10.00;;;6.50;42.10;;;;;;5075765;28;20499;-58
2022/03/14 07:30:22;;;;;;;31.57;11.80;;;6.50;41.90;;;;;;5076150;28;20442;-59
2022/03/14 07:32:49;;;;;;;15.60;10.63;;;6.50;42.10;;;;;;5075984;28;20462;-58
2022/03/14 07:35:16;;;;;;;24.00;10.77;;;6.50;42.20;;;;;;5075957;28;20438;-59
2022/03/14 07:37:44;;;;;;;20.77;9.07;;;6.50;42.10;;;;;;5076650;28;20454;-61
2022/03/14 07:40:12;;;;;;;19.43;9.10;;;6.50;42.20;;;;;;5075647;28;20511;-57
2022/03/14 07:42:43;;;;;;;15.13;9.60;;;6.60;41.90;;;;;;5075672;28;20499;-56
2022/03/14 07:45:11;;;;;;;17.87;10.90;;;6.70;41.80;;;;;;5075610;28;20492;-63
2022/03/14 07:47:40;;;;;;;16.80;9.70;;;6.70;41.90;;;;;;5075641;28;20810;-61
2022/03/14 07:50:08;;;;;;;15.50;10.20;;;6.80;42.00;;;;;;5075559;28;20453;-60
2022/03/14 07:52:36;;;;;;;16.73;9.50;;;6.80;41.50;;;;;;5075697;28;20453;-61
2022/03/14 07:55:04;;;;;;;13.03;8.80;;;6.90;41.50;;;;;;5075893;28;20438;-61
2022/03/14 07:57:32;;;;;;;20.23;10.83;;;7.00;41.50;;;;;;5075412;28;20513;-60
2022/03/14 07:59:59;;;;;;;19.20;9.20;;;7.00;41.50;;;;;;5075268;28;20552;-61
2022/03/14 08:02:25;;;;;;;15.23;9.53;;;7.10;41.60;;;;;;5075371;28;20461;-60
2022/03/14 08:04:53;;;;;;;11.37;8.20;;;7.20;41.10;;;;;;5075503;28;20466;-56
2022/03/14 08:07:21;;;;;;;18.30;10.43;;;7.30;41.00;;;;;;5075136;28;20922;-61
2022/03/14 08:09:49;;;;;;;15.80;8.77;;;7.40;40.70;;;;;;5075587;28;20524;-60
2022/03/14 08:12:16;;;;;;;18.10;8.93;;;7.50;40.30;;;;;;5074841;28;20541;-59
2022/03/14 08:14:43;;;;;;;14.70;8.27;;;7.50;40.00;;;;;;5074772;28;20450;-59
2022/03/14 08:17:09;;;;;;;17.97;10.10;;;7.60;39.80;;;;;;5075205;28;20825;-58
2022/03/14 08:19:36;;;;;;;17.97;8.80;;;7.70;39.80;;;;;;5092319;28;20438;-52
2022/03/14 08:22:05;;;;;;;17.27;8.03;;;7.80;39.80;;;;;;5094834;28;20459;-53
2022/03/14 08:24:32;;;;;;;14.23;8.67;;;7.80;39.80;;;;;;5095036;28;20504;-58
2022/03/14 08:27:01;;;;;;;15.93;8.70;;;8.00;39.70;;;;;;5095488;28;20438;-55
2022/03/14 08:29:28;;;;;;;16.10;9.93;;;8.10;39.30;;;;;;5095549;28;20431;-59
2022/03/14 08:31:55;;;;;;;15.73;8.70;;;8.10;39.80;;;;;;5095427;28;20438;-59
2022/03/14 08:34:22;;;;;;;19.53;9.77;;;8.20;39.20;;;;;;5095583;28;20455;-58
2022/03/14 08:36:49;;;;;;;14.87;8.20;;;8.30;38.90;;;;;;5095275;28;20455;-57
2022/03/14 08:39:18;;;;;;;19.60;8.77;;;8.40;39.00;;;;;;5095171;28;20466;-55
2022/03/14 08:41:45;;;;;;;18.97;8.80;;;8.60;39.10;;;;;;5095791;28;20434;-49
2022/03/14 08:44:13;;;;;;;17.80;8.90;;;9.60;38.40;;;;;;5095555;28;20477;-47
2022/03/14 08:46:41;;;;;;;21.00;9.27;;;11.10;35.90;;;;;;5094671;28;20540;-55
2022/03/14 08:49:08;;;;;;;20.37;8.70;;;12.60;34.00;;;;;;5095003;28;20431;-57
2022/03/14 08:51:35;;;;;;;18.17;9.17;;;13.80;32.50;;;;;;5094177;28;20470;-57
2022/03/14 08:54:01;;;;;;;17.10;9.23;;;14.90;30.80;;;;;;5094405;28;20431;-58
2022/03/14 08:56:29;;;;;;;13.10;9.10;;;15.80;29.90;;;;;;5094332;28;20446;-55
2022/03/14 08:58:56;;;;;;;14.07;9.90;;;16.70;29.60;;;;;;5093780;28;20478;-55
2022/03/14 09:01:23;;;;;;;15.87;9.97;;;17.70;28.70;;;;;;5094438;28;20454;-59
2022/03/14 09:03:50;;;;;;;16.83;10.67;;;18.50;28.00;;;;;;5094161;28;20494;-53
2022/03/14 09:06:17;;;;;;;16.60;9.23;;;19.40;27.70;;;;;;5094745;28;20430;-53
2022/03/14 09:08:43;;;;;;;17.90;9.57;;;20.00;27.00;;;;;;5094375;28;20438;-54
2022/03/14 09:11:10;;;;;;;15.60;9.93;;;20.40;26.70;;;;;;5094937;28;20863;-54
2022/03/14 09:13:39;;;;;;;17.20;10.30;;;20.60;26.50;;;;;;5094524;28;20449;-52
2022/03/14 09:16:09;;;;;;;13.53;8.37;;;20.90;26.10;;;;;;5094650;28;20462;-50
2022/03/14 09:18:38;;;;;;;15.17;9.80;;;20.80;26.10;;;;;;5094861;28;20447;-58
2022/03/14 09:21:04;;;;;;;18.87;10.60;;;20.60;26.00;;;;;;5095199;28;20422;-56
2022/03/14 09:23:31;;;;;;;15.97;8.90;;;20.70;26.00;;;;;;5094857;28;20915;-56
2022/03/14 09:25:58;;;;;;;13.63;9.47;;;20.70;25.80;;;;;;5094732;28;20454;-54
2022/03/14 09:28:25;;;;;;;15.70;9.40;;;20.70;26.00;;;;;;5094622;28;20458;-57
2022/03/14 09:30:53;;;;;;;17.50;9.17;;;20.60;25.70;;;;;;5094588;28;20507;-56
2022/03/14 09:33:23;;;;;;;14.50;10.03;;;20.20;25.80;;;;;;5095968;28;20430;-52
2022/03/14 09:35:50;;;;;;;15.23;9.50;;;19.50;26.10;;;;;;5099097;28;20456;-55
2022/03/14 09:38:18;;;;;;;20.53;9.00;;;18.30;26.60;;;;;;5098261;28;20456;-57
2022/03/14 09:40:46;;;;;;;10.80;8.40;;;17.30;27.40;;;;;;5097948;28;20470;-57
2022/03/14 09:43:15;;;;;;;14.50;8.03;;;16.70;27.90;;;;;;5097445;28;20481;-56
2022/03/14 09:45:46;;;;;;;10.90;8.13;;;16.00;28.80;;;;;;5098080;28;20478;-56
2022/03/14 09:48:15;;;;;;;13.27;8.40;;;15.60;29.00;;;;;;5098367;28;20489;-52
2022/03/14 09:50:44;;;;;;;12.37;8.60;;;15.70;29.40;;;;;;5098341;28;20461;-58
2022/03/14 09:53:13;;;;;;;11.83;8.00;;;16.50;29.20;;;;;;5097572;28;20480;-55
2022/03/14 09:55:42;;;;;;;20.07;9.40;;;17.90;28.70;;;;;;5098236;28;20449;-54
2022/03/14 09:58:10;;;;;;;12.57;8.40;;;18.90;28.00;;;;;;5098425;28;20442;-55
2022/03/14 10:00:37;;;;;;;12.97;8.53;;;19.80;27.60;;;;;;5098182;28;20446;-54
2022/03/14 10:03:05;;;;;;;11.10;7.60;;;20.80;26.80;;;;;;5098370;28;20472;-54
2022/03/14 10:05:33;;;;;;;10.10;8.17;;;21.40;26.00;;;;;;5077164;28;20509;-57
2022/03/14 10:08:00;;;;;;;11.30;7.77;;;21.50;25.60;;;;;;5078618;28;20469;-58
2022/03/14 10:10:27;;;;;;;11.63;8.80;;;21.60;25.50;;;;;;5079298;28;20438;-58
2022/03/14 10:12:57;;;;;;;14.00;9.03;;;21.90;25.40;;;;;;5079535;28;20431;-58
2022/03/14 10:15:25;;;;;;;12.80;9.10;;;22.00;25.20;;;;;;5078669;28;20484;-53
2022/03/14 10:17:52;;;;;;;10.20;8.50;;;22.40;25.10;;;;;;5078967;28;20516;-58
2022/03/14 10:20:20;;;;;;;13.20;8.23;;;22.70;25.10;;;;;;5077582;28;20446;-58
2022/03/14 10:22:49;;;;;;;9.93;7.30;;;22.80;25.20;;;;;;5077623;28;20486;-60
2022/03/14 10:25:18;;;;;;;11.80;8.87;;;23.00;24.90;;;;;;5077531;28;20470;-58
2022/03/14 10:27:49;;;;;;;13.27;7.53;;;23.10;24.80;;;;;;5097118;28;20449;-48
2022/03/14 10:30:24;;;;;;;11.83;8.20;;;23.20;24.90;;;;;;5100954;28;20442;-45
2022/03/14 10:32:51;;;;;;;12.00;9.50;;;22.80;24.90;;;;;;5101015;28;20414;-45
2022/03/14 10:35:20;;;;;;;11.37;9.63;;;22.50;24.80;;;;;;5100899;28;20442;-43
2022/03/14 10:38:00;;;;;;;15.07;8.47;;;22.10;24.90;;;;;;5101126;28;20435;-45
2022/03/14 10:40:31;;;;;;;10.47;7.90;;;21.70;25.10;;;;;;5100976;28;20406;-42
2022/03/14 10:42:57;;;;;;;13.43;8.20;;;21.60;25.30;;;;;;5100842;28;20422;-43
2022/03/14 10:45:24;;;;;;;11.47;7.37;;;21.30;25.40;;;;;;5100015;28;20446;-44
2022/03/14 10:47:57;;;;;;;12.50;8.70;;;21.10;25.80;;;;;;5100672;28;20478;-45
2022/03/14 10:50:34;;;;;;;13.40;8.40;;;21.10;25.80;;;;;;5100682;28;20447;-42
2022/03/14 10:53:08;;;;;;;13.57;9.27;;;21.00;26.10;;;;;;5100570;28;20422;-46
2022/03/14 10:55:40;;;;;;;14.73;8.57;;;20.70;26.00;;;;;;5091060;28;20438;-55
2022/03/14 10:58:12;;;;;;;12.37;7.90;;;20.30;26.20;;;;;;5085151;28;20446;-59
2022/03/14 11:00:46;;;;;;;11.50;9.17;;;20.20;26.30;;;;;;5085547;28;20744;-56
2022/03/14 11:03:13;;;;;;;12.70;8.23;;;19.90;26.50;;;;;;5084069;28;20988;-59
2022/03/14 11:05:45;;;;;;;10.47;9.00;;;19.70;26.80;;;;;;5085290;28;20879;-59
2022/03/14 11:08:36;;;;;;;12.57;7.83;;;19.70;26.80;;;;;;5085516;28;20442;-58
2022/03/14 11:11:05;;;;;;;10.90;8.67;;;19.30;27.10;;;;;;5084166;28;20446;-55
2022/03/14 11:13:33;;;;;;;10.13;7.80;;;19.10;27.40;;;;;;5087705;28;20476;-58
2022/03/14 11:16:00;;;;;;;17.17;9.97;;;18.90;27.30;;;;;;5088566;28;20579;-59
2022/03/14 11:18:26;;;;;;;11.80;7.80;;;18.60;27.40;;;;;;5089283;28;20465;-59
2022/03/14 11:20:54;;;;;;;11.50;8.23;;;18.20;27.70;;;;;;5084913;28;20465;-59
2022/03/14 11:23:22;;;;;;;13.60;8.50;;;17.90;27.90;;;;;;5083188;28;20453;-56
2022/03/14 11:25:50;;;;;;;13.93;9.10;;;17.60;28.10;;;;;;5083760;28;20478;-56
2022/03/14 11:28:19;;;;;;;10.33;7.30;;;17.50;28.70;;;;;;5084733;28;20446;-56
2022/03/14 11:30:51;;;;;;;10.87;7.30;;;17.20;28.40;;;;;;5086061;28;20466;-58
2022/03/14 11:33:18;;;;;;;14.13;8.37;;;17.00;28.30;;;;;;5087390;28;20469;-59
2022/03/14 11:35:46;;;;;;;9.63;7.10;;;16.80;28.50;;;;;;5084425;28;20442;-59
2022/03/14 11:38:14;;;;;;;9.47;7.33;;;16.40;28.90;;;;;;5084615;28;20431;-56
2022/03/14 11:40:42;;;;;;;12.43;7.53;;;16.10;29.20;;;;;;5085540;28;20474;-58
2022/03/14 11:43:11;;;;;;;9.60;7.20;;;15.90;29.50;;;;;;5084060;28;20466;-57
2022/03/14 11:45:38;;;;;;;8.97;7.70;;;15.70;29.40;;;;;;5085049;28;20490;-58
2022/03/14 11:48:06;;;;;;;10.93;6.73;;;15.60;29.70;;;;;;5087464;28;20450;-56
2022/03/14 11:50:44;;;;;;;9.90;6.93;;;15.70;30.00;;;;;;5083057;28;20458;-59
2022/03/14 11:53:19;;;;;;;10.83;7.67;;;15.70;29.70;;;;;;5084554;28;20506;-58
2022/03/14 11:55:53;;;;;;;9.47;6.77;;;15.80;29.90;;;;;;5084869;28;20418;-58
2022/03/14 11:58:36;;;;;;;10.43;7.70;;;15.90;30.00;;;;;;5084983;28;20506;-59
2022/03/14 12:01:16;;;;;;;8.80;6.77;;;16.10;30.10;;;;;;5083867;28;20470;-57
2022/03/14 12:03:47;;;;;;;7.70;6.60;;;16.20;30.00;;;;;;5083136;28;20449;-58
2022/03/14 12:06:14;;;;;;;11.90;8.57;;;16.30;29.80;;;;;;5085931;28;20497;-58
2022/03/14 12:09:01;;;;;;;12.03;7.60;;;16.20;30.00;;;;;;5083929;28;20431;-57
2022/03/14 12:11:36;;;;;;;12.83;7.33;;;16.10;30.00;;;;;;5086320;28;20422;-62
2022/03/14 12:14:05;;;;;;;13.47;8.67;;;16.00;30.00;;;;;;5085969;28;20449;-61
2022/03/14 12:16:39;;;;;;;11.20;8.07;;;15.90;30.10;;;;;;5086456;28;20423;-58
2022/03/14 12:19:26;;;;;;;10.70;7.57;;;15.80;30.40;;;;;;5084481;28;20601;-57
2022/03/14 12:21:54;;;;;;;14.70;7.90;;;15.80;30.80;;;;;;5085444;28;20461;-57
2022/03/14 12:24:21;;;;;;;11.00;8.07;;;15.70;30.90;;;;;;5085417;28;20468;-58
2022/03/14 12:26:47;;;;;;;16.47;7.80;;;15.80;31.00;;;;;;5082169;28;20446;-55
2022/03/14 12:29:36;;;;;;;9.50;7.93;;;15.70;30.60;;;;;;5084447;28;20465;-57
2022/03/14 12:32:29;;;;;;;13.90;7.73;;;15.40;30.80;;;;;;5080816;28;20547;-57
2022/03/14 12:34:57;;;;;;;16.80;8.27;;;15.30;31.30;;;;;;5083609;28;20434;-54
2022/03/14 12:37:25;;;;;;;10.57;7.70;;;15.20;31.40;;;;;;5081099;28;20497;-59
2022/03/14 12:39:52;;;;;;;14.40;8.27;;;15.00;31.60;;;;;;5081874;28;20446;-59
2022/03/14 12:42:23;;;;;;;11.13;8.00;;;14.90;31.80;;;;;;5081650;28;20450;-59
2022/03/14 12:45:15;;;;;;;12.30;8.70;;;14.90;32.00;;;;;;5084365;28;20938;-57
2022/03/14 12:47:42;;;;;;;11.67;8.40;;;14.80;32.10;;;;;;5084480;28;20427;-59
2022/03/14 12:50:10;;;;;;;12.50;8.23;;;14.60;32.50;;;;;;5083923;28;20466;-49